createdAt,value
2023-11-08T00:15:31.816Z,100
2023-11-08T00:44:46.816Z,100
2023-11-08T01:14:00.469Z,100
2023-11-08T01:43:11.654Z,100
2023-11-08T02:12:30.403Z,100
2023-11-08T02:41:43.421Z,100
2023-11-08T03:11:06.643Z,100
2023-11-08T03:40:21.531Z,100
2023-11-08T04:09:33.517Z,100
2023-11-08T04:38:46.149Z,99
2023-11-08T05:08:01.190Z,99
2023-11-08T05:37:12.889Z,98
2023-11-08T06:06:20.226Z,99
2023-11-08T06:35:29.673Z,99
2023-11-08T07:04:36.915Z,99
2023-11-08T07:33:48.065Z,98
2023-11-08T08:02:49.631Z,99
2023-11-08T08:32:05.649Z,95
2023-11-08T09:01:28.330Z,91
2023-11-08T09:30:54.959Z,88
2023-11-08T10:00:04.088Z,86
2023-11-08T10:28:55.579Z,82
2023-11-08T10:58:17.499Z,80
2023-11-08T11:27:40.863Z,63
2023-11-08T11:57:04.103Z,59
2023-11-08T12:26:15.657Z,69
2023-11-08T12:55:25.480Z,69
2023-11-08T13:24:35.149Z,68
2023-11-08T13:53:45.148Z,68
2023-11-08T14:23:06.306Z,68
2023-11-08T14:52:26.421Z,69
2023-11-08T15:21:48.974Z,68
2023-11-08T15:50:57.062Z,69
2023-11-08T16:20:10.283Z,70
2023-11-08T16:49:09.838Z,72
2023-11-08T17:18:17.446Z,75
2023-11-08T17:47:19.141Z,79
2023-11-08T18:16:31.983Z,82
2023-11-08T18:45:46.224Z,83
2023-11-08T19:14:52.002Z,84
2023-11-08T19:44:17.318Z,86
2023-11-08T20:13:25.298Z,87
2023-11-08T20:42:38.193Z,88
2023-11-08T21:11:46.160Z,89
2023-11-08T21:40:57.359Z,88
2023-11-08T22:10:09.077Z,86
2023-11-08T22:39:19.799Z,84
2023-11-08T23:08:33.318Z,82
2023-11-08T23:37:33.508Z,81
